createdAt,value
2016-10-13T08:10:00.358Z,1017.83
2016-10-13T08:10:42.483Z,1017.85
2016-10-13T08:11:25.049Z,1017.83
2016-10-13T08:16:24.195Z,1017.85
2016-10-13T08:17:24.516Z,1017.9
2016-10-13T08:18:21.735Z,1017.86
2016-10-13T08:19:17.065Z,1017.89
2016-10-13T08:20:10.261Z,1017.88
2016-10-13T08:20:58.127Z,1017.91
2016-10-13T08:21:46.076Z,1017.89
2016-10-13T08:22:38.356Z,1017.92
2016-10-13T08:23:28.032Z,1017.87
2016-10-13T08:24:18.472Z,1017.89
2016-10-13T08:25:00.209Z,1017.87
2016-10-13T08:25:42.658Z,1017.89
2016-10-13T08:26:22.915Z,1017.91
2016-10-13T08:27:05.612Z,1017.89
2016-10-13T08:27:52.494Z,1017.92
2016-10-13T08:28:41.681Z,1017.92
2016-10-13T08:29:36.777Z,1017.91
2016-10-13T08:30:21.927Z,1017.9
2016-10-13T08:31:06.992Z,1017.93
2016-10-13T08:31:56.336Z,1017.89
2016-10-13T08:32:46.903Z,1017.88
2016-10-13T08:33:44.662Z,1017.91
2016-10-13T08:34:36.771Z,1017.85
2016-10-13T08:35:32.180Z,1017.88
2016-10-13T08:36:20.239Z,1017.82
2016-10-13T08:37:03.196Z,1017.83
2016-10-13T08:37:49.936Z,1017.82
2016-10-13T08:38:37.708Z,1017.79
2016-10-13T08:39:22.418Z,1017.8
2016-10-13T08:40:04.386Z,1017.81
2016-10-13T08:40:46.022Z,1017.8
2016-10-13T08:41:27.687Z,1017.77
2016-10-13T08:42:11.120Z,1017.77
2016-10-13T08:42:52.383Z,1017.82
2016-10-13T08:43:33.623Z,1017.77
2016-10-13T08:44:16.365Z,1017.79
2016-10-13T08:45:02.520Z,1017.78
2016-10-13T08:45:43.261Z,1017.78
2016-10-13T08:46:24.707Z,1017.78
2016-10-13T08:47:07.010Z,1017.81
2016-10-13T08:47:48.369Z,1017.79
2016-10-13T08:48:33.399Z,1017.82
2016-10-13T08:49:14.752Z,1017.86
2016-10-13T08:53:10.167Z,1017.79
2016-10-13T08:53:56.020Z,1017.75
2016-10-13T08:54:36.578Z,1017.77
2016-10-13T08:55:18.189Z,1017.77
2016-10-13T08:56:02.148Z,1017.82
2016-10-13T08:56:48.571Z,1017.82
2016-10-13T08:57:31.840Z,1017.86
2016-10-13T08:58:16.288Z,1017.84
2016-10-13T08:58:57.634Z,1017.86
2016-10-13T08:59:40.748Z,1017.9
2016-10-13T09:00:24.292Z,1017.89
2016-10-13T09:01:06.158Z,1017.91
2016-10-13T09:01:47.683Z,1017.93
2016-10-13T09:02:28.281Z,1017.9
2016-10-13T09:03:08.949Z,1017.9
2016-10-13T09:05:38.530Z,1017.91
2016-10-13T09:06:19.233Z,1017.88
2016-10-13T09:06:59.889Z,1017.87
2016-10-13T09:07:40.547Z,1017.85
2016-10-13T09:08:21.234Z,1017.93
2016-10-13T09:09:02.408Z,1017.89
2016-10-13T09:09:43.146Z,1017.89
2016-10-13T09:10:24.154Z,1017.88
2016-10-13T09:11:04.993Z,1017.86
2016-10-13T09:11:45.561Z,1017.88
2016-10-13T09:12:26.143Z,1017.9
2016-10-13T09:13:06.736Z,1017.92
2016-10-13T09:13:49.222Z,1017.94
2016-10-13T09:14:29.781Z,1017.93
2016-10-13T09:15:10.460Z,1017.93
2016-10-13T09:15:51.066Z,1017.95
2016-10-13T09:16:32.562Z,1017.97
2016-10-13T09:17:15.466Z,1017.91
2016-10-13T09:17:58.513Z,1017.87
2016-10-13T09:18:46.427Z,1017.9
2016-10-13T09:19:31.301Z,1017.87
2016-10-13T09:20:17.603Z,1017.86
2016-10-13T09:22:13.947Z,1017.84
2016-10-13T09:22:55.282Z,1017.85
2016-10-13T09:23:37.338Z,1017.81
2016-10-13T09:24:22.355Z,1017.86
2016-10-13T09:25:05.619Z,1017.83
2016-10-13T09:25:46.355Z,1017.79
2016-10-13T09:26:26.906Z,1017.85
2016-10-13T09:27:08.227Z,1017.82
2016-10-13T09:27:49.267Z,1017.82
2016-10-13T09:28:30.073Z,1017.83
2016-10-13T09:29:10.801Z,1017.82
2016-10-13T09:29:52.261Z,1017.78
2016-10-13T09:30:33.770Z,1017.79
2016-10-13T09:31:16.001Z,1017.76
2016-10-13T09:31:57.796Z,1017.77
2016-10-13T09:32:39.288Z,1017.78
2016-10-13T09:33:20.198Z,1017.76
2016-10-13T09:34:01.434Z,1017.76
2016-10-13T09:34:42.936Z,1017.71
2016-10-13T09:35:24.577Z,1017.65
2016-10-13T09:37:08.045Z,1017.73
2016-10-13T09:37:48.661Z,1017.71
2016-10-13T09:38:29.423Z,1017.73
2016-10-13T09:39:10.360Z,1017.7
2016-10-13T09:39:53.166Z,1017.69
2016-10-13T09:40:34.771Z,1017.64
2016-10-13T09:41:15.903Z,1017.66
2016-10-13T09:41:56.556Z,1017.62
2016-10-13T09:42:37.195Z,1017.58
2016-10-13T09:43:17.756Z,1017.57
2016-10-13T09:43:59.276Z,1017.59
2016-10-13T09:44:39.667Z,1017.57
2016-10-13T09:45:20.259Z,1017.53
2016-10-13T09:46:01.076Z,1017.49
2016-10-13T09:46:42.514Z,1017.54
2016-10-13T09:47:23.299Z,1017.49
2016-10-13T09:48:04.147Z,1017.48
2016-10-13T09:48:45.768Z,1017.5
2016-10-13T09:49:27.168Z,1017.51
2016-10-13T09:50:09.644Z,1017.51
2016-10-13T09:52:11.324Z,1017.46
2016-10-13T09:52:52.381Z,1017.46
2016-10-13T09:53:32.949Z,1017.5
2016-10-13T09:54:13.631Z,1017.47
2016-10-13T09:54:54.445Z,1017.46
2016-10-13T09:55:35.187Z,1017.46
2016-10-13T09:56:16.798Z,1017.42
2016-10-13T09:56:58.128Z,1017.4
2016-10-13T09:57:39.087Z,1017.42
2016-10-13T09:58:20.407Z,1017.41
2016-10-13T09:59:01.224Z,1017.4
2016-10-13T09:59:42.186Z,1017.42
2016-10-13T10:00:23.286Z,1017.4
2016-10-13T10:01:03.988Z,1017.39
2016-10-13T10:01:44.657Z,1017.34
2016-10-13T10:02:25.565Z,1017.38
2016-10-13T10:03:07.086Z,1017.36
2016-10-13T10:03:47.708Z,1017.35
2016-10-13T10:04:28.904Z,1017.36
2016-10-13T10:05:09.840Z,1017.38
2016-10-13T10:05:50.528Z,1017.38
2016-10-13T10:06:35.618Z,1017.32
2016-10-13T10:07:16.456Z,1017.37
2016-10-13T10:07:58.727Z,1017.35
2016-10-13T10:08:39.355Z,1017.36
2016-10-13T10:09:20.297Z,1017.36
2016-10-13T10:10:00.844Z,1017.41
2016-10-13T10:10:41.463Z,1017.36
2016-10-13T10:11:22.112Z,1017.36
2016-10-13T10:12:03.851Z,1017.34
2016-10-13T10:12:50.389Z,1017.31
2016-10-13T10:13:31.077Z,1017.33
2016-10-13T10:14:13.196Z,1017.34
2016-10-13T10:14:53.570Z,1017.37
2016-10-13T10:15:34.900Z,1017.36
2016-10-13T10:16:16.844Z,1017.37
2016-10-13T10:16:57.410Z,1017.38
2016-10-13T10:17:38.325Z,1017.37
2016-10-13T10:18:19.251Z,1017.41
2016-10-13T10:19:03.220Z,1017.34
2016-10-13T10:19:43.863Z,1017.36
2016-10-13T10:20:24.386Z,1017.35
2016-10-13T10:21:04.944Z,1017.37
2016-10-13T10:21:45.540Z,1017.39
2016-10-13T10:22:26.103Z,1017.37
2016-10-13T10:23:06.699Z,1017.39
2016-10-13T10:23:47.245Z,1017.36
2016-10-13T10:24:28.744Z,1017.36
2016-10-13T10:25:09.294Z,1017.32
2016-10-13T10:25:49.908Z,1017.31
2016-10-13T10:26:30.510Z,1017.35
2016-10-13T10:27:11.138Z,1017.35
2016-10-13T10:27:52.113Z,1017.35
2016-10-13T10:28:33.915Z,1017.36
2016-10-13T10:29:15.483Z,1017.35
2016-10-13T10:29:56.455Z,1017.36
2016-10-13T10:30:38.291Z,1017.32
